VOE7MV LFLL-LIPZ
Flight info
| Callsign | VOE7MV |
|---|---|
| Flight time | 0h 59m |
| Altitude | 31000 |
| Route | RISOR T47 GEMLA DCT VANAS DCT MEDAM DCT NITAM DCT MOGBO/N0440F320 DCT EVANO DCT OSKOR DCT ELTAR DCT IDREK DCT ADOSA/N0376F190 L612 ALBET |
| Aircraft | A320/M-SDE3FGHIRWY/LB1 |
Departure
| Time | 2026-04-28 20:47 |
|---|---|
| Airport | Lyon Saint-Exupéry Airport (LFLL) |
Arrival
| Time | 2026-04-28 21:46 |
|---|---|
| Airport | Venice Marco Polo Airport (LIPZ) |
| Time | Latitude | Longitude | Altitude | Speed | Heading |
|---|---|---|---|---|---|
| 2026-04-28 20:18 | 45.72076 | 5.08118 | 807 ft | 0 kts | 281° |
| 2026-04-28 20:33 | 45.72075 | 5.08130 | 808 ft | 3 kts | 286° |
| 2026-04-28 20:33 | 45.72067 | 5.08156 | 808 ft | 3 kts | 303° |
| 2026-04-28 20:34 | 45.72056 | 5.08180 | 808 ft | 3 kts | 300° |
| 2026-04-28 20:34 | 45.72046 | 5.08205 | 808 ft | 3 kts | 303° |
| 2026-04-28 20:34 | 45.72034 | 5.08229 | 808 ft | 3 kts | 315° |
| 2026-04-28 20:34 | 45.72020 | 5.08245 | 808 ft | 3 kts | 352° |
| 2026-04-28 20:35 | 45.72010 | 5.08246 | 809 ft | 0 kts | 17° |
| 2026-04-28 20:38 | 45.72013 | 5.08247 | 808 ft | 2 kts | 16° |
| 2026-04-28 20:38 | 45.72032 | 5.08254 | 808 ft | 5 kts | 15° |
| 2026-04-28 20:39 | 45.72060 | 5.08266 | 808 ft | 7 kts | 16° |
| 2026-04-28 20:39 | 45.72135 | 5.08301 | 806 ft | 10 kts | 18° |
| 2026-04-28 20:39 | 45.72209 | 5.08315 | 805 ft | 8 kts | 358° |
| 2026-04-28 20:39 | 45.72258 | 5.08353 | 804 ft | 9 kts | 63° |
| 2026-04-28 20:40 | 45.72304 | 5.08414 | 804 ft | 10 kts | 8° |
| 2026-04-28 20:40 | 45.72381 | 5.08408 | 803 ft | 12 kts | 355° |
| 2026-04-28 20:40 | 45.72439 | 5.08400 | 802 ft | 12 kts | 354° |
| 2026-04-28 20:40 | 45.72523 | 5.08391 | 800 ft | 12 kts | 356° |
| 2026-04-28 20:41 | 45.72609 | 5.08380 | 799 ft | 12 kts | 355° |
| 2026-04-28 20:41 | 45.72693 | 5.08369 | 798 ft | 12 kts | 354° |
| 2026-04-28 20:41 | 45.72775 | 5.08359 | 796 ft | 12 kts | 356° |
| 2026-04-28 20:41 | 45.72855 | 5.08350 | 795 ft | 11 kts | 356° |
| 2026-04-28 20:42 | 45.72933 | 5.08341 | 794 ft | 11 kts | 355° |
| 2026-04-28 20:42 | 45.73007 | 5.08331 | 793 ft | 11 kts | 355° |
| 2026-04-28 20:42 | 45.73079 | 5.08322 | 792 ft | 10 kts | 355° |
| 2026-04-28 20:42 | 45.73149 | 5.08313 | 791 ft | 10 kts | 355° |
| 2026-04-28 20:43 | 45.73217 | 5.08304 | 790 ft | 10 kts | 355° |
| 2026-04-28 20:43 | 45.73284 | 5.08296 | 789 ft | 9 kts | 355° |
| 2026-04-28 20:43 | 45.73358 | 5.08287 | 787 ft | 12 kts | 355° |
| 2026-04-28 20:43 | 45.73441 | 5.08277 | 786 ft | 12 kts | 355° |
| 2026-04-28 20:44 | 45.73522 | 5.08268 | 785 ft | 12 kts | 355° |
| 2026-04-28 20:44 | 45.73626 | 5.08255 | 784 ft | 13 kts | 354° |
| 2026-04-28 20:44 | 45.73702 | 5.08281 | 783 ft | 11 kts | 38° |
| 2026-04-28 20:44 | 45.73730 | 5.08370 | 782 ft | 10 kts | 88° |
| 2026-04-28 20:45 | 45.73715 | 5.08462 | 782 ft | 10 kts | 104° |
| 2026-04-28 20:45 | 45.73696 | 5.08564 | 781 ft | 12 kts | 104° |
| 2026-04-28 20:45 | 45.73687 | 5.08676 | 780 ft | 7 kts | 96° |
| 2026-04-28 20:45 | 45.73664 | 5.08713 | 781 ft | 3 kts | 163° |
| 2026-04-28 20:46 | 45.73608 | 5.08722 | 783 ft | 21 kts | 175° |
| 2026-04-28 20:46 | 45.73215 | 5.08772 | 793 ft | 92 kts | 175° |
| 2026-04-28 20:46 | 45.72368 | 5.08876 | 802 ft | 150 kts | 175° |
| 2026-04-28 20:46 | 45.71254 | 5.09016 | 1289 ft | 159 kts | 177° |
| 2026-04-28 20:47 | 45.70142 | 5.09117 | 2008 ft | 162 kts | 173° |
| 2026-04-28 20:47 | 45.68970 | 5.09250 | 2402 ft | 179 kts | 173° |
| 2026-04-28 20:47 | 45.67651 | 5.09421 | 2698 ft | 202 kts | 173° |
| 2026-04-28 20:47 | 45.66165 | 5.09614 | 3015 ft | 226 kts | 174° |
| 2026-04-28 20:48 | 45.64563 | 5.09817 | 3707 ft | 234 kts | 174° |
| 2026-04-28 20:48 | 45.62931 | 5.10023 | 4554 ft | 237 kts | 173° |
| 2026-04-28 20:48 | 45.61348 | 5.10836 | 5109 ft | 255 kts | 142° |
| 2026-04-28 20:48 | 45.60336 | 5.12970 | 5761 ft | 271 kts | 107° |
| 2026-04-28 20:49 | 45.60289 | 5.15702 | 6526 ft | 282 kts | 84° |
| 2026-04-28 20:49 | 45.60420 | 5.18512 | 7280 ft | 285 kts | 94° |
| 2026-04-28 20:49 | 45.60281 | 5.21309 | 8070 ft | 287 kts | 102° |
| 2026-04-28 20:49 | 45.59826 | 5.24097 | 8864 ft | 289 kts | 109° |
| 2026-04-28 20:50 | 45.59196 | 5.26844 | 9666 ft | 293 kts | 112° |
| 2026-04-28 20:50 | 45.58496 | 5.29598 | 10365 ft | 300 kts | 113° |
| 2026-04-28 20:50 | 45.57749 | 5.32504 | 10599 ft | 324 kts | 112° |
| 2026-04-28 20:50 | 45.56963 | 5.35641 | 10866 ft | 344 kts | 111° |
| 2026-04-28 20:51 | 45.56173 | 5.38911 | 11451 ft | 353 kts | 111° |
| 2026-04-28 20:51 | 45.55389 | 5.42254 | 12118 ft | 358 kts | 110° |
| 2026-04-28 20:51 | 45.54606 | 5.45650 | 12790 ft | 363 kts | 110° |
| 2026-04-28 20:51 | 45.53810 | 5.49087 | 13465 ft | 367 kts | 112° |
| 2026-04-28 20:52 | 45.52558 | 5.52252 | 14061 ft | 369 kts | 132° |
| 2026-04-28 20:52 | 45.50797 | 5.54923 | 14671 ft | 371 kts | 136° |
| 2026-04-28 20:52 | 45.48998 | 5.57583 | 15287 ft | 375 kts | 131° |
| 2026-04-28 20:52 | 45.47673 | 5.60804 | 15893 ft | 382 kts | 112° |
| 2026-04-28 20:53 | 45.47441 | 5.68331 | 17136 ft | 391 kts | 74° |
| 2026-04-28 20:53 | 45.48267 | 5.72044 | 17758 ft | 394 kts | 72° |
| 2026-04-28 20:53 | 45.49124 | 5.75778 | 18369 ft | 398 kts | 72° |
| 2026-04-28 20:54 | 45.49990 | 5.79533 | 18887 ft | 401 kts | 72° |
| 2026-04-28 20:54 | 45.50864 | 5.83331 | 19399 ft | 404 kts | 72° |
| 2026-04-28 20:54 | 45.51739 | 5.87155 | 19938 ft | 407 kts | 72° |
| 2026-04-28 20:54 | 45.52614 | 5.91006 | 20454 ft | 410 kts | 72° |
| 2026-04-28 20:55 | 45.53485 | 5.94896 | 20968 ft | 413 kts | 74° |
| 2026-04-28 20:55 | 45.54069 | 5.98912 | 21469 ft | 415 kts | 83° |
| 2026-04-28 20:55 | 45.54436 | 6.02962 | 21980 ft | 418 kts | 84° |
| 2026-04-28 20:55 | 45.54811 | 6.07098 | 22485 ft | 421 kts | 84° |
| 2026-04-28 20:56 | 45.55188 | 6.11254 | 22972 ft | 424 kts | 84° |
| 2026-04-28 20:56 | 45.55567 | 6.15444 | 23453 ft | 427 kts | 84° |
| 2026-04-28 20:56 | 45.55947 | 6.19657 | 23882 ft | 429 kts | 84° |
| 2026-04-28 20:56 | 45.56326 | 6.23899 | 24227 ft | 433 kts | 84° |
| 2026-04-28 20:57 | 45.56692 | 6.28181 | 24587 ft | 436 kts | 86° |
| 2026-04-28 20:57 | 45.56714 | 6.32513 | 24934 ft | 437 kts | 96° |
| 2026-04-28 20:57 | 45.56234 | 6.36800 | 25269 ft | 439 kts | 106° |
| 2026-04-28 20:57 | 45.55268 | 6.40935 | 25594 ft | 439 kts | 114° |
| 2026-04-28 20:58 | 45.54115 | 6.44990 | 25903 ft | 442 kts | 114° |
| 2026-04-28 20:58 | 45.52963 | 6.49069 | 26223 ft | 445 kts | 114° |
| 2026-04-28 20:58 | 45.51806 | 6.53181 | 26543 ft | 448 kts | 114° |
| 2026-04-28 20:58 | 45.50643 | 6.57316 | 26854 ft | 451 kts | 114° |
| 2026-04-28 20:59 | 45.49467 | 6.61475 | 27177 ft | 454 kts | 114° |
| 2026-04-28 20:59 | 45.48278 | 6.65666 | 27490 ft | 457 kts | 114° |
| 2026-04-28 20:59 | 45.46968 | 6.69788 | 27795 ft | 457 kts | 121° |
| 2026-04-28 20:59 | 45.45264 | 6.73534 | 28104 ft | 456 kts | 130° |
| 2026-04-28 21:00 | 45.43148 | 6.76893 | 28370 ft | 455 kts | 140° |
| 2026-04-28 21:00 | 45.40702 | 6.79732 | 28626 ft | 453 kts | 148° |
| 2026-04-28 21:00 | 45.38115 | 6.82321 | 28937 ft | 455 kts | 148° |
| 2026-04-28 21:00 | 45.35523 | 6.84917 | 29205 ft | 457 kts | 148° |
| 2026-04-28 21:01 | 45.32919 | 6.87526 | 29491 ft | 459 kts | 148° |
| 2026-04-28 21:01 | 45.30296 | 6.90146 | 29780 ft | 461 kts | 148° |
| 2026-04-28 21:01 | 45.27669 | 6.92770 | 30050 ft | 463 kts | 147° |
| 2026-04-28 21:01 | 45.25187 | 6.95705 | 30283 ft | 468 kts | 139° |
| 2026-04-28 21:02 | 45.22837 | 6.98957 | 30503 ft | 470 kts | 139° |
| 2026-04-28 21:02 | 45.20495 | 7.02194 | 30769 ft | 470 kts | 139° |
| 2026-04-28 21:02 | 45.18152 | 7.05426 | 31103 ft | 469 kts | 139° |
| 2026-04-28 21:02 | 45.15812 | 7.08644 | 31409 ft | 469 kts | 139° |
| 2026-04-28 21:03 | 45.13469 | 7.11859 | 31692 ft | 468 kts | 139° |
| 2026-04-28 21:03 | 45.11186 | 7.15062 | 31963 ft | 469 kts | 136° |
| 2026-04-28 21:03 | 45.09120 | 7.18747 | 32132 ft | 473 kts | 128° |
| 2026-04-28 21:03 | 45.07247 | 7.22539 | 32168 ft | 467 kts | 128° |
| 2026-04-28 21:04 | 45.03562 | 7.29986 | 32170 ft | 464 kts | 128° |
| 2026-04-28 21:04 | 45.01924 | 7.33997 | 32163 ft | 468 kts | 117° |
| 2026-04-28 21:04 | 45.00851 | 7.38302 | 32151 ft | 472 kts | 105° |
| 2026-04-28 21:05 | 45.00358 | 7.42893 | 32144 ft | 475 kts | 94° |
| 2026-04-28 21:05 | 45.00490 | 7.47554 | 32142 ft | 476 kts | 82° |
| 2026-04-28 21:05 | 45.01240 | 7.52121 | 32130 ft | 477 kts | 70° |
| 2026-04-28 21:05 | 45.02405 | 7.56510 | 32076 ft | 477 kts | 69° |
| 2026-04-28 21:06 | 45.04765 | 7.65287 | 32075 ft | 478 kts | 69° |
| 2026-04-28 21:06 | 45.07113 | 7.74075 | 32073 ft | 478 kts | 69° |
| 2026-04-28 21:07 | 45.09450 | 7.82871 | 32070 ft | 477 kts | 69° |
| 2026-04-28 21:07 | 45.11790 | 7.91666 | 32060 ft | 477 kts | 69° |
| 2026-04-28 21:08 | 45.14121 | 8.00467 | 32044 ft | 477 kts | 69° |
| 2026-04-28 21:08 | 45.16430 | 8.09224 | 32041 ft | 477 kts | 69° |
| 2026-04-28 21:09 | 45.18737 | 8.18034 | 32027 ft | 477 kts | 69° |
| 2026-04-28 21:09 | 45.21036 | 8.26862 | 32036 ft | 477 kts | 69° |
| 2026-04-28 21:10 | 45.23340 | 8.35679 | 32038 ft | 477 kts | 68° |
| 2026-04-28 21:10 | 45.25640 | 8.44506 | 32043 ft | 477 kts | 68° |
| 2026-04-28 21:11 | 45.27921 | 8.53338 | 32044 ft | 476 kts | 69° |
| 2026-04-28 21:11 | 45.30192 | 8.62176 | 32051 ft | 476 kts | 69° |
| 2026-04-28 21:12 | 45.32462 | 8.71018 | 32045 ft | 476 kts | 69° |
| 2026-04-28 21:12 | 45.34708 | 8.79886 | 32041 ft | 477 kts | 69° |
| 2026-04-28 21:13 | 45.36822 | 8.88820 | 32035 ft | 477 kts | 70° |
| 2026-04-28 21:13 | 45.38885 | 8.97778 | 32018 ft | 477 kts | 70° |
| 2026-04-28 21:14 | 45.40960 | 9.06743 | 32019 ft | 476 kts | 70° |
| 2026-04-28 21:14 | 45.43038 | 9.15631 | 32018 ft | 476 kts | 70° |
| 2026-04-28 21:15 | 45.45132 | 9.24586 | 32016 ft | 476 kts | 70° |
| 2026-04-28 21:15 | 45.47199 | 9.33548 | 32012 ft | 476 kts | 70° |
| 2026-04-28 21:16 | 45.49269 | 9.42531 | 32130 ft | 477 kts | 70° |
| 2026-04-28 21:16 | 45.51331 | 9.51510 | 32124 ft | 477 kts | 70° |
| 2026-04-28 21:17 | 45.53389 | 9.60494 | 32126 ft | 477 kts | 70° |
| 2026-04-28 21:17 | 45.55434 | 9.69486 | 32044 ft | 477 kts | 70° |
| 2026-04-28 21:18 | 45.57478 | 9.78495 | 32041 ft | 477 kts | 70° |
| 2026-04-28 21:18 | 45.59513 | 9.87503 | 32043 ft | 477 kts | 70° |
| 2026-04-28 21:19 | 45.61534 | 9.96516 | 32036 ft | 477 kts | 71° |
| 2026-04-28 21:19 | 45.63514 | 10.05401 | 31847 ft | 457 kts | 71° |
| 2026-04-28 21:20 | 45.64430 | 10.09710 | 31458 ft | 451 kts | 76° |
| 2026-04-28 21:20 | 45.64896 | 10.14114 | 31012 ft | 447 kts | 87° |
| 2026-04-28 21:20 | 45.64915 | 10.18543 | 30518 ft | 444 kts | 90° |
| 2026-04-28 21:20 | 45.64901 | 10.22891 | 30050 ft | 441 kts | 90° |
| 2026-04-28 21:21 | 45.64890 | 10.27264 | 29534 ft | 438 kts | 90° |
| 2026-04-28 21:21 | 45.64878 | 10.31592 | 29157 ft | 431 kts | 90° |
| 2026-04-28 21:21 | 45.64863 | 10.35836 | 28635 ft | 428 kts | 90° |
| 2026-04-28 21:21 | 45.64846 | 10.40133 | 27803 ft | 434 kts | 90° |
| 2026-04-28 21:22 | 45.64832 | 10.44443 | 27228 ft | 433 kts | 90° |
| 2026-04-28 21:22 | 45.64817 | 10.48730 | 26727 ft | 430 kts | 90° |
| 2026-04-28 21:22 | 45.64800 | 10.52982 | 26262 ft | 426 kts | 90° |
| 2026-04-28 21:22 | 45.64786 | 10.55836 | 25950 ft | 424 kts | 90° |
| 2026-04-28 21:23 | 45.64758 | 10.61454 | 25023 ft | 428 kts | 90° |
| 2026-04-28 21:23 | 45.64735 | 10.65691 | 24513 ft | 426 kts | 90° |
| 2026-04-28 21:23 | 45.64707 | 10.69906 | 24044 ft | 422 kts | 90° |
| 2026-04-28 21:23 | 45.64674 | 10.74083 | 23604 ft | 419 kts | 90° |
| 2026-04-28 21:24 | 45.64639 | 10.78233 | 23109 ft | 416 kts | 90° |
| 2026-04-28 21:24 | 45.64605 | 10.82335 | 22521 ft | 410 kts | 90° |
| 2026-04-28 21:24 | 45.64574 | 10.86397 | 21750 ft | 406 kts | 90° |
| 2026-04-28 21:24 | 45.64544 | 10.90411 | 21015 ft | 402 kts | 90° |
| 2026-04-28 21:25 | 45.64511 | 10.94389 | 20480 ft | 399 kts | 90° |
| 2026-04-28 21:25 | 45.64476 | 10.98308 | 20259 ft | 390 kts | 91° |
| 2026-04-28 21:25 | 45.64097 | 11.02107 | 19929 ft | 384 kts | 106° |
| 2026-04-28 21:25 | 45.63098 | 11.05614 | 19533 ft | 380 kts | 121° |
| 2026-04-28 21:26 | 45.61691 | 11.08786 | 19084 ft | 377 kts | 124° |
| 2026-04-28 21:26 | 45.60293 | 11.11869 | 18482 ft | 373 kts | 124° |
| 2026-04-28 21:26 | 45.58893 | 11.14969 | 17703 ft | 369 kts | 124° |
| 2026-04-28 21:26 | 45.57506 | 11.18053 | 17188 ft | 368 kts | 124° |
| 2026-04-28 21:27 | 45.56133 | 11.21115 | 16792 ft | 365 kts | 123° |
| 2026-04-28 21:27 | 45.54771 | 11.24159 | 16410 ft | 362 kts | 124° |
| 2026-04-28 21:27 | 45.53419 | 11.27173 | 16025 ft | 359 kts | 124° |
| 2026-04-28 21:27 | 45.52509 | 11.29195 | 15755 ft | 357 kts | 124° |
| 2026-04-28 21:28 | 45.51191 | 11.32119 | 15371 ft | 354 kts | 124° |
| 2026-04-28 21:28 | 45.49843 | 11.35103 | 15005 ft | 351 kts | 124° |
| 2026-04-28 21:28 | 45.48523 | 11.38016 | 14642 ft | 349 kts | 124° |
| 2026-04-28 21:28 | 45.47210 | 11.40905 | 14289 ft | 346 kts | 124° |
| 2026-04-28 21:29 | 45.45907 | 11.43767 | 13930 ft | 343 kts | 124° |
| 2026-04-28 21:29 | 45.44612 | 11.46613 | 13539 ft | 341 kts | 124° |
| 2026-04-28 21:29 | 45.43351 | 11.49390 | 13250 ft | 334 kts | 124° |
| 2026-04-28 21:29 | 45.42013 | 11.51953 | 13099 ft | 312 kts | 134° |
| 2026-04-28 21:30 | 45.40576 | 11.54230 | 12687 ft | 300 kts | 135° |
| 2026-04-28 21:30 | 45.38968 | 11.55986 | 12332 ft | 293 kts | 156° |
| 2026-04-28 21:30 | 45.37076 | 11.56990 | 12189 ft | 290 kts | 164° |
| 2026-04-28 21:30 | 45.35160 | 11.57891 | 12052 ft | 290 kts | 164° |
| 2026-04-28 21:31 | 45.33246 | 11.58792 | 11827 ft | 289 kts | 164° |
| 2026-04-28 21:31 | 45.31342 | 11.59686 | 11695 ft | 288 kts | 164° |
| 2026-04-28 21:31 | 45.29446 | 11.60574 | 11566 ft | 287 kts | 163° |
| 2026-04-28 21:31 | 45.27550 | 11.61463 | 11441 ft | 286 kts | 163° |
| 2026-04-28 21:32 | 45.25660 | 11.62349 | 11194 ft | 285 kts | 163° |
| 2026-04-28 21:32 | 45.23778 | 11.63227 | 10842 ft | 284 kts | 163° |
| 2026-04-28 21:32 | 45.21899 | 11.64100 | 10488 ft | 284 kts | 163° |
| 2026-04-28 21:32 | 45.20022 | 11.64969 | 10118 ft | 283 kts | 163° |
| 2026-04-28 21:33 | 45.18146 | 11.65836 | 9727 ft | 281 kts | 163° |
| 2026-04-28 21:33 | 45.16322 | 11.66682 | 9356 ft | 271 kts | 163° |
| 2026-04-28 21:33 | 45.14603 | 11.67482 | 9265 ft | 252 kts | 163° |
| 2026-04-28 21:33 | 45.12972 | 11.68240 | 9182 ft | 242 kts | 163° |
| 2026-04-28 21:34 | 45.11406 | 11.69095 | 9069 ft | 241 kts | 152° |
| 2026-04-28 21:34 | 45.10076 | 11.70530 | 8846 ft | 242 kts | 134° |
| 2026-04-28 21:34 | 45.08964 | 11.72312 | 8614 ft | 241 kts | 133° |
| 2026-04-28 21:34 | 45.07856 | 11.74084 | 8404 ft | 240 kts | 133° |
| 2026-04-28 21:35 | 45.06858 | 11.75966 | 8189 ft | 240 kts | 114° |
| 2026-04-28 21:35 | 45.06620 | 11.78239 | 7982 ft | 240 kts | 80° |
| 2026-04-28 21:35 | 45.07305 | 11.80355 | 7780 ft | 239 kts | 46° |
| 2026-04-28 21:35 | 45.08623 | 11.81775 | 7577 ft | 240 kts | 34° |
| 2026-04-28 21:36 | 45.09928 | 11.83241 | 7370 ft | 240 kts | 41° |
| 2026-04-28 21:36 | 45.11156 | 11.84832 | 7166 ft | 239 kts | 43° |
| 2026-04-28 21:36 | 45.12359 | 11.86444 | 6957 ft | 238 kts | 43° |
| 2026-04-28 21:36 | 45.13562 | 11.88051 | 6777 ft | 237 kts | 43° |
| 2026-04-28 21:37 | 45.14770 | 11.89635 | 6591 ft | 236 kts | 42° |
| 2026-04-28 21:37 | 45.15984 | 11.91198 | 6401 ft | 235 kts | 42° |
| 2026-04-28 21:37 | 45.17196 | 11.92743 | 6204 ft | 234 kts | 42° |
| 2026-04-28 21:37 | 45.18408 | 11.94276 | 6018 ft | 233 kts | 42° |
| 2026-04-28 21:38 | 45.19615 | 11.95802 | 5828 ft | 231 kts | 42° |
| 2026-04-28 21:38 | 45.20813 | 11.97318 | 5646 ft | 230 kts | 42° |
| 2026-04-28 21:38 | 45.22005 | 11.98825 | 5464 ft | 229 kts | 43° |
| 2026-04-28 21:38 | 45.23192 | 12.00326 | 5280 ft | 228 kts | 43° |
| 2026-04-28 21:39 | 45.24373 | 12.01820 | 5099 ft | 227 kts | 43° |
| 2026-04-28 21:39 | 45.25532 | 12.03285 | 4924 ft | 225 kts | 43° |
| 2026-04-28 21:39 | 45.26714 | 12.04782 | 4740 ft | 224 kts | 43° |
| 2026-04-28 21:39 | 45.27862 | 12.06238 | 4563 ft | 223 kts | 43° |
| 2026-04-28 21:40 | 45.29017 | 12.07707 | 4376 ft | 222 kts | 43° |
| 2026-04-28 21:40 | 45.30166 | 12.09168 | 4206 ft | 221 kts | 43° |
| 2026-04-28 21:40 | 45.31310 | 12.10624 | 4033 ft | 220 kts | 43° |
| 2026-04-28 21:40 | 45.32445 | 12.12069 | 3848 ft | 219 kts | 43° |
| 2026-04-28 21:41 | 45.33575 | 12.13509 | 3682 ft | 218 kts | 43° |
| 2026-04-28 21:41 | 45.34694 | 12.14935 | 3517 ft | 213 kts | 43° |
| 2026-04-28 21:41 | 45.35777 | 12.16316 | 3343 ft | 206 kts | 43° |
| 2026-04-28 21:41 | 45.36816 | 12.17641 | 3235 ft | 197 kts | 43° |
| 2026-04-28 21:42 | 45.37831 | 12.18938 | 3038 ft | 195 kts | 43° |
| 2026-04-28 21:42 | 45.38821 | 12.20202 | 2815 ft | 189 kts | 43° |
| 2026-04-28 21:42 | 45.39788 | 12.21438 | 2553 ft | 184 kts | 43° |
| 2026-04-28 21:42 | 45.40729 | 12.22642 | 2315 ft | 179 kts | 43° |
| 2026-04-28 21:43 | 45.41641 | 12.23808 | 2075 ft | 173 kts | 43° |
| 2026-04-28 21:43 | 45.42507 | 12.24916 | 1855 ft | 162 kts | 42° |
| 2026-04-28 21:43 | 45.43317 | 12.25953 | 1640 ft | 151 kts | 43° |
| 2026-04-28 21:43 | 45.44086 | 12.26938 | 1446 ft | 147 kts | 43° |
| 2026-04-28 21:44 | 45.44840 | 12.27904 | 1258 ft | 145 kts | 43° |
| 2026-04-28 21:44 | 45.45589 | 12.28862 | 1071 ft | 145 kts | 43° |
| 2026-04-28 21:44 | 45.46335 | 12.29824 | 880 ft | 145 kts | 43° |
| 2026-04-28 21:44 | 45.47084 | 12.30788 | 672 ft | 145 kts | 43° |
| 2026-04-28 21:45 | 45.47833 | 12.31751 | 479 ft | 145 kts | 43° |
| 2026-04-28 21:45 | 45.48570 | 12.32695 | 283 ft | 143 kts | 43° |
| 2026-04-28 21:45 | 45.49310 | 12.33646 | 104 ft | 144 kts | 43° |
| 2026-04-28 21:45 | 45.50016 | 12.34551 | 15 ft | 121 kts | 41° |
| 2026-04-28 21:46 | 45.50521 | 12.35196 | 13 ft | 71 kts | 42° |
| 2026-04-28 21:46 | 45.50766 | 12.35516 | 16 ft | 23 kts | 49° |
| 2026-04-28 21:46 | 45.50847 | 12.35541 | 18 ft | 9 kts | 14° |
| 2026-04-28 21:46 | 45.50904 | 12.35559 | 18 ft | 8 kts | 12° |
| 2026-04-28 21:47 | 45.50957 | 12.35560 | 18 ft | 8 kts | 349° |
| 2026-04-28 21:47 | 45.50994 | 12.35515 | 16 ft | 6 kts | 287° |
| 2026-04-28 21:47 | 45.50991 | 12.35436 | 18 ft | 7 kts | 260° |
| 2026-04-28 21:47 | 45.50984 | 12.35377 | 19 ft | 5 kts | 261° |
| 2026-04-28 21:48 | 45.50974 | 12.35323 | 20 ft | 8 kts | 255° |
| 2026-04-28 21:48 | 45.50960 | 12.35248 | 21 ft | 9 kts | 255° |
| 2026-04-28 21:48 | 45.50920 | 12.35157 | 19 ft | 11 kts | 223° |
| 2026-04-28 21:48 | 45.50839 | 12.35053 | 18 ft | 19 kts | 222° |
| 2026-04-28 21:49 | 45.50734 | 12.34919 | 16 ft | 21 kts | 222° |
| 2026-04-28 21:49 | 45.50644 | 12.34803 | 15 ft | 11 kts | 222° |
| 2026-04-28 21:49 | 45.50589 | 12.34731 | 15 ft | 10 kts | 221° |
| 2026-04-28 21:49 | 45.50531 | 12.34657 | 17 ft | 10 kts | 222° |
| 2026-04-28 21:50 | 45.50474 | 12.34583 | 18 ft | 13 kts | 222° |
| 2026-04-28 21:50 | 45.50409 | 12.34501 | 18 ft | 13 kts | 220° |
| 2026-04-28 21:50 | 45.50355 | 12.34412 | 21 ft | 10 kts | 261° |
| 2026-04-28 21:50 | 45.50406 | 12.34347 | 22 ft | 16 kts | 355° |
| 2026-04-28 21:51 | 45.50525 | 12.34340 | 16 ft | 10 kts | 358° |
| 2026-04-28 21:51 | 45.50589 | 12.34335 | 15 ft | 6 kts | 352° |
| 2026-04-28 21:51 | 45.50616 | 12.34296 | 14 ft | 5 kts | 279° |
| 2026-04-28 21:51 | 45.50615 | 12.34250 | 14 ft | 5 kts | 268° |
| 2026-04-28 21:52 | 45.50614 | 12.34217 | 14 ft | 0 kts | 269° |